createdAt,value
2017-11-30T00:00:49.997Z,44
2017-11-30T00:10:49.927Z,48
2017-11-30T00:20:49.887Z,44
2017-11-30T00:30:49.952Z,47
2017-11-30T00:40:49.906Z,50
2017-11-30T00:50:49.968Z,41
2017-11-30T01:00:49.891Z,48
2017-11-30T01:10:49.991Z,41
2017-11-30T01:20:50.005Z,44
2017-11-30T01:30:49.965Z,48
2017-11-30T01:40:49.929Z,48
2017-11-30T01:50:50.048Z,51
2017-11-30T02:00:49.929Z,45
2017-11-30T02:10:49.995Z,46
2017-11-30T02:20:49.967Z,48
2017-11-30T02:30:50.067Z,46
2017-11-30T02:40:49.979Z,41
2017-11-30T02:50:50.083Z,47
2017-11-30T03:00:50.020Z,50
2017-11-30T03:10:50.017Z,49
2017-11-30T03:20:50.034Z,47
2017-11-30T03:30:49.987Z,53
2017-11-30T03:40:50.097Z,49
2017-11-30T03:50:50.073Z,48
2017-11-30T04:00:50.128Z,48
2017-11-30T04:10:50.102Z,56
2017-11-30T04:20:50.121Z,54
2017-11-30T04:30:50.049Z,44
2017-11-30T04:40:50.151Z,44
2017-11-30T04:50:50.082Z,44
2017-11-30T05:00:50.205Z,46
2017-11-30T05:10:50.132Z,44
2017-11-30T05:20:50.104Z,46
2017-11-30T05:30:50.096Z,54
2017-11-30T05:40:50.102Z,54
2017-11-30T05:50:50.169Z,59
2017-11-30T06:00:50.104Z,66
2017-11-30T06:10:50.203Z,70
2017-11-30T06:20:50.189Z,77
2017-11-30T06:30:50.158Z,74
2017-11-30T06:40:50.188Z,70
2017-11-30T06:50:50.503Z,75
2017-11-30T07:00:50.286Z,75
2017-11-30T07:10:50.135Z,80
2017-11-30T07:20:50.122Z,100
2017-11-30T07:30:50.196Z,90
2017-11-30T07:40:50.091Z,88
2017-11-30T07:50:50.149Z,122
2017-11-30T08:00:50.145Z,99
2017-11-30T08:10:50.149Z,118
2017-11-30T08:20:50.159Z,100
2017-11-30T08:30:50.212Z,68
2017-11-30T08:40:50.216Z,66
2017-11-30T08:50:50.202Z,60
2017-11-30T09:00:50.260Z,68
2017-11-30T09:10:50.237Z,57
2017-11-30T09:20:50.235Z,44
2017-11-30T09:30:50.267Z,36
2017-11-30T09:40:50.339Z,41
2017-11-30T09:50:50.253Z,40
2017-11-30T10:00:50.214Z,41
2017-11-30T10:10:50.244Z,39
2017-11-30T10:20:50.252Z,42
2017-11-30T10:30:50.355Z,35
2017-11-30T10:40:50.296Z,37
2017-11-30T10:50:50.268Z,28
2017-11-30T11:00:50.276Z,29
2017-11-30T11:10:50.295Z,25
2017-11-30T11:20:50.776Z,15
2017-11-30T11:30:50.366Z,14
2017-11-30T11:40:50.420Z,16
2017-11-30T11:50:50.352Z,15
2017-11-30T12:00:50.406Z,11
2017-11-30T12:10:50.400Z,10
2017-11-30T12:20:50.637Z,18
2017-11-30T12:30:50.398Z,14
2017-11-30T12:40:50.401Z,15
2017-11-30T12:50:50.535Z,11
2017-11-30T13:00:50.413Z,13
2017-11-30T13:10:50.435Z,10
2017-11-30T13:20:50.454Z,9
2017-11-30T13:30:50.539Z,9
2017-11-30T13:40:50.743Z,11
2017-11-30T13:50:50.620Z,15
2017-11-30T14:00:50.534Z,11
2017-11-30T14:10:50.451Z,17
2017-11-30T14:20:50.553Z,14
2017-11-30T14:30:50.680Z,15
2017-11-30T14:40:50.604Z,13
2017-11-30T14:50:50.597Z,16
2017-11-30T15:00:50.502Z,18
2017-11-30T15:10:50.498Z,15
2017-11-30T15:20:50.541Z,19
2017-11-30T15:30:52.931Z,23
2017-11-30T15:40:50.620Z,20
2017-11-30T15:50:50.768Z,18
2017-11-30T16:00:50.810Z,17
2017-11-30T16:10:50.844Z,18
2017-11-30T16:20:50.627Z,6
2017-11-30T16:30:50.787Z,3
2017-11-30T16:40:50.524Z,2
2017-11-30T16:50:50.556Z,1
2017-11-30T17:00:50.587Z,1
2017-11-30T17:10:50.559Z,1
2017-11-30T17:20:50.531Z,3
2017-11-30T17:30:50.819Z,5
2017-11-30T17:40:50.964Z,2
2017-11-30T17:50:50.859Z,3
2017-11-30T18:00:50.907Z,4
2017-11-30T18:10:50.810Z,5
2017-11-30T18:20:50.835Z,5
2017-11-30T18:30:50.676Z,7
2017-11-30T18:40:50.846Z,5
2017-11-30T18:50:50.765Z,7
2017-11-30T19:00:50.837Z,8
2017-11-30T19:10:50.784Z,14
2017-11-30T19:20:50.817Z,17
2017-11-30T19:30:50.965Z,17
2017-11-30T19:40:51.223Z,21
2017-11-30T19:50:51.519Z,27
2017-11-30T20:00:51.703Z,32
2017-11-30T20:10:51.366Z,32
2017-11-30T20:20:50.932Z,35
2017-11-30T20:30:51.738Z,36
2017-11-30T20:40:51.095Z,39
2017-11-30T20:50:50.864Z,35
2017-11-30T21:00:52.491Z,41
2017-11-30T21:10:51.363Z,40
2017-11-30T21:20:53.691Z,42
2017-11-30T21:30:50.940Z,44
2017-11-30T21:40:51.285Z,44
2017-11-30T21:50:51.627Z,40
2017-11-30T22:00:51.780Z,41
2017-11-30T22:10:51.796Z,40
2017-11-30T22:20:51.327Z,40
2017-11-30T22:30:50.982Z,38
2017-11-30T22:40:50.988Z,37
2017-11-30T22:50:50.889Z,40
2017-11-30T23:00:50.984Z,37
2017-11-30T23:10:51.437Z,39
2017-11-30T23:20:51.402Z,37
2017-11-30T23:30:51.221Z,35
2017-11-30T23:40:50.932Z,40
2017-11-30T23:50:52.108Z,37
